sensor_id;sensor_type;location;lat;lon;timestamp;temperature;humidity
8043;DHT22;4064;48.132;11.366;2023-07-24T00:00:35;18.60;98.40
8043;DHT22;4064;48.132;11.366;2023-07-24T00:03:02;18.60;98.90
8043;DHT22;4064;48.132;11.366;2023-07-24T00:05:27;18.60;99.10
8043;DHT22;4064;48.132;11.366;2023-07-24T00:07:53;18.40;99.30
8043;DHT22;4064;48.132;11.366;2023-07-24T00:10:19;18.50;99.90
8043;DHT22;4064;48.132;11.366;2023-07-24T00:12:44;18.50;99.90
8043;DHT22;4064;48.132;11.366;2023-07-24T00:15:10;18.50;99.80
8043;DHT22;4064;48.132;11.366;2023-07-24T00:17:35;18.40;99.90
8043;DHT22;4064;48.132;11.366;2023-07-24T00:20:01;18.20;99.90
8043;DHT22;4064;48.132;11.366;2023-07-24T00:22:26;18.40;99.90
8043;DHT22;4064;48.132;11.366;2023-07-24T00:24:52;18.50;99.90
8043;DHT22;4064;48.132;11.366;2023-07-24T00:27:18;18.50;99.90
8043;DHT22;4064;48.132;11.366;2023-07-24T00:29:43;18.40;99.90
8043;DHT22;4064;48.132;11.366;2023-07-24T00:32:09;18.00;99.90
8043;DHT22;4064;48.132;11.366;2023-07-24T00:34:34;17.90;99.90
8043;DHT22;4064;48.132;11.366;2023-07-24T00:37:00;18.20;99.90
8043;DHT22;4064;48.132;11.366;2023-07-24T00:39:26;18.30;99.90
8043;DHT22;4064;48.132;11.366;2023-07-24T00:41:54;18.30;99.90
8043;DHT22;4064;48.132;11.366;2023-07-24T00:44:19;18.20;99.90
8043;DHT22;4064;48.132;11.366;2023-07-24T00:46:45;18.20;99.90
8043;DHT22;4064;48.132;11.366;2023-07-24T00:49:11;18.30;99.90
8043;DHT22;4064;48.132;11.366;2023-07-24T00:51:37;18.40;99.90
8043;DHT22;4064;48.132;11.366;2023-07-24T00:54:05;18.10;99.90
8043;DHT22;4064;48.132;11.366;2023-07-24T00:56:32;18.20;99.90
8043;DHT22;4064;48.132;11.366;2023-07-24T00:58:58;18.30;99.90
8043;DHT22;4064;48.132;11.366;2023-07-24T01:01:25;18.40;99.90
8043;DHT22;4064;48.132;11.366;2023-07-24T01:03:51;18.20;99.90
8043;DHT22;4064;48.132;11.366;2023-07-24T01:06:17;18.10;99.90
8043;DHT22;4064;48.132;11.366;2023-07-24T01:08:43;18.10;99.90
8043;DHT22;4064;48.132;11.366;2023-07-24T01:11:22;18.00;99.90
8043;DHT22;4064;48.132;11.366;2023-07-24T01:13:57;18.10;99.90
8043;DHT22;4064;48.132;11.366;2023-07-24T01:16:29;18.00;99.90
8043;DHT22;4064;48.132;11.366;2023-07-24T01:18:57;17.90;99.90
8043;DHT22;4064;48.132;11.366;2023-07-24T01:21:35;17.50;99.90
8043;DHT22;4064;48.132;11.366;2023-07-24T01:24:19;17.60;99.90
8043;DHT22;4064;48.132;11.366;2023-07-24T01:26:49;17.40;99.90
8043;DHT22;4064;48.132;11.366;2023-07-24T01:29:15;17.80;99.90
8043;DHT22;4064;48.132;11.366;2023-07-24T01:31:40;17.50;99.90
8043;DHT22;4064;48.132;11.366;2023-07-24T01:34:06;17.80;99.90
8043;DHT22;4064;48.132;11.366;2023-07-24T01:36:32;17.90;99.90
8043;DHT22;4064;48.132;11.366;2023-07-24T01:38:58;18.00;99.90
8043;DHT22;4064;48.132;11.366;2023-07-24T01:41:24;17.90;99.90
8043;DHT22;4064;48.132;11.366;2023-07-24T01:43:50;17.80;99.90
8043;DHT22;4064;48.132;11.366;2023-07-24T01:46:15;17.70;99.90
8043;DHT22;4064;48.132;11.366;2023-07-24T01:48:41;17.90;99.90
8043;DHT22;4064;48.132;11.366;2023-07-24T01:51:06;18.10;99.90
8043;DHT22;4064;48.132;11.366;2023-07-24T01:53:32;18.00;99.90
8043;DHT22;4064;48.132;11.366;2023-07-24T01:55:58;17.90;99.90
8043;DHT22;4064;48.132;11.366;2023-07-24T01:58:24;17.80;99.90
8043;DHT22;4064;48.132;11.366;2023-07-24T02:00:49;17.60;99.90
8043;DHT22;4064;48.132;11.366;2023-07-24T02:03:15;17.80;99.90
8043;DHT22;4064;48.132;11.366;2023-07-24T02:05:40;18.00;99.90
8043;DHT22;4064;48.132;11.366;2023-07-24T02:08:06;17.90;99.90
8043;DHT22;4064;48.132;11.366;2023-07-24T02:10:32;17.80;99.90
8043;DHT22;4064;48.132;11.366;2023-07-24T02:12:57;17.80;99.90
8043;DHT22;4064;48.132;11.366;2023-07-24T02:15:23;17.90;99.90
8043;DHT22;4064;48.132;11.366;2023-07-24T02:17:48;17.90;99.90
8043;DHT22;4064;48.132;11.366;2023-07-24T02:20:14;17.70;99.90
8043;DHT22;4064;48.132;11.366;2023-07-24T02:22:39;17.70;99.90
8043;DHT22;4064;48.132;11.366;2023-07-24T02:25:05;17.60;99.90
8043;DHT22;4064;48.132;11.366;2023-07-24T02:27:32;17.50;99.90
8043;DHT22;4064;48.132;11.366;2023-07-24T02:30:00;17.40;99.90
8043;DHT22;4064;48.132;11.366;2023-07-24T02:32:26;17.40;99.90
8043;DHT22;4064;48.132;11.366;2023-07-24T02:34:52;17.60;99.90
8043;DHT22;4064;48.132;11.366;2023-07-24T02:37:18;17.80;99.90
8043;DHT22;4064;48.132;11.366;2023-07-24T02:39:44;17.90;99.90
8043;DHT22;4064;48.132;11.366;2023-07-24T02:42:09;17.70;99.90
8043;DHT22;4064;48.132;11.366;2023-07-24T02:44:35;17.70;99.90
8043;DHT22;4064;48.132;11.366;2023-07-24T02:47:01;17.80;99.90
8043;DHT22;4064;48.132;11.366;2023-07-24T02:49:27;17.70;99.90
8043;DHT22;4064;48.132;11.366;2023-07-24T02:51:53;17.80;99.90
8043;DHT22;4064;48.132;11.366;2023-07-24T02:54:18;17.90;99.90
8043;DHT22;4064;48.132;11.366;2023-07-24T02:56:44;18.00;99.90
8043;DHT22;4064;48.132;11.366;2023-07-24T02:59:09;18.00;99.90
8043;DHT22;4064;48.132;11.366;2023-07-24T03:01:36;17.80;99.90
8043;DHT22;4064;48.132;11.366;2023-07-24T03:04:02;17.70;99.90
8043;DHT22;4064;48.132;11.366;2023-07-24T03:06:28;17.60;99.90
8043;DHT22;4064;48.132;11.366;2023-07-24T03:08:53;17.50;99.90
8043;DHT22;4064;48.132;11.366;2023-07-24T03:11:19;17.50;99.90
8043;DHT22;4064;48.132;11.366;2023-07-24T03:13:45;17.50;99.90
8043;DHT22;4064;48.132;11.366;2023-07-24T03:16:10;17.60;99.90
8043;DHT22;4064;48.132;11.366;2023-07-24T03:18:36;17.40;99.90
8043;DHT22;4064;48.132;11.366;2023-07-24T03:21:03;17.50;99.90
8043;DHT22;4064;48.132;11.366;2023-07-24T03:23:28;17.70;99.90
8043;DHT22;4064;48.132;11.366;2023-07-24T03:25:54;17.70;99.90
8043;DHT22;4064;48.132;11.366;2023-07-24T03:28:20;17.60;99.90
8043;DHT22;4064;48.132;11.366;2023-07-24T03:30:45;17.40;99.90
8043;DHT22;4064;48.132;11.366;2023-07-24T03:33:11;17.40;99.90
8043;DHT22;4064;48.132;11.366;2023-07-24T03:35:38;17.40;99.90
8043;DHT22;4064;48.132;11.366;2023-07-24T03:38:04;17.50;99.90
8043;DHT22;4064;48.132;11.366;2023-07-24T03:40:29;17.30;99.90
8043;DHT22;4064;48.132;11.366;2023-07-24T03:42:55;17.40;99.90
8043;DHT22;4064;48.132;11.366;2023-07-24T03:45:21;17.40;99.90
8043;DHT22;4064;48.132;11.366;2023-07-24T03:47:46;17.40;99.90
8043;DHT22;4064;48.132;11.366;2023-07-24T03:50:12;17.50;99.90
8043;DHT22;4064;48.132;11.366;2023-07-24T03:52:38;17.30;99.90
8043;DHT22;4064;48.132;11.366;2023-07-24T03:55:03;17.30;99.90
8043;DHT22;4064;48.132;11.366;2023-07-24T03:57:29;17.30;99.90
8043;DHT22;4064;48.132;11.366;2023-07-24T03:59:55;17.40;99.90
8043;DHT22;4064;48.132;11.366;2023-07-24T04:02:20;17.50;99.90
8043;DHT22;4064;48.132;11.366;2023-07-24T04:04:47;17.50;99.90
8043;DHT22;4064;48.132;11.366;2023-07-24T04:07:13;17.50;99.90
8043;DHT22;4064;48.132;11.366;2023-07-24T04:09:38;17.60;99.90
8043;DHT22;4064;48.132;11.366;2023-07-24T04:12:04;17.60;99.90
8043;DHT22;4064;48.132;11.366;2023-07-24T04:14:30;17.40;99.90
8043;DHT22;4064;48.132;11.366;2023-07-24T04:16:56;17.60;99.90
8043;DHT22;4064;48.132;11.366;2023-07-24T04:19:22;17.60;99.90
8043;DHT22;4064;48.132;11.366;2023-07-24T04:21:47;17.50;99.90
8043;DHT22;4064;48.132;11.366;2023-07-24T04:24:13;17.50;99.90
8043;DHT22;4064;48.132;11.366;2023-07-24T04:26:38;17.60;99.90
8043;DHT22;4064;48.132;11.366;2023-07-24T04:29:05;17.50;99.90
8043;DHT22;4064;48.132;11.366;2023-07-24T04:31:31;17.60;99.90
8043;DHT22;4064;48.132;11.366;2023-07-24T04:33:57;17.40;99.90
8043;DHT22;4064;48.132;11.366;2023-07-24T04:36:22;17.20;99.90
8043;DHT22;4064;48.132;11.366;2023-07-24T04:38:48;17.30;99.90
8043;DHT22;4064;48.132;11.366;2023-07-24T04:41:14;17.30;99.90
8043;DHT22;4064;48.132;11.366;2023-07-24T04:43:39;17.20;99.90
8043;DHT22;4064;48.132;11.366;2023-07-24T04:46:05;17.20;99.90
8043;DHT22;4064;48.132;11.366;2023-07-24T04:48:30;17.20;99.90
8043;DHT22;4064;48.132;11.366;2023-07-24T04:50:56;17.20;99.90
8043;DHT22;4064;48.132;11.366;2023-07-24T04:53:22;17.20;99.90
8043;DHT22;4064;48.132;11.366;2023-07-24T04:55:48;17.30;99.90
8043;DHT22;4064;48.132;11.366;2023-07-24T04:58:14;17.40;99.90
8043;DHT22;4064;48.132;11.366;2023-07-24T05:00:39;17.40;99.90
8043;DHT22;4064;48.132;11.366;2023-07-24T05:03:05;17.50;99.90
8043;DHT22;4064;48.132;11.366;2023-07-24T05:05:33;17.30;99.90
8043;DHT22;4064;48.132;11.366;2023-07-24T05:07:59;17.30;99.90
8043;DHT22;4064;48.132;11.366;2023-07-24T05:10:24;17.30;99.90
8043;DHT22;4064;48.132;11.366;2023-07-24T05:12:50;17.40;99.90
8043;DHT22;4064;48.132;11.366;2023-07-24T05:15:16;17.40;99.90
8043;DHT22;4064;48.132;11.366;2023-07-24T05:17:45;17.40;99.90
8043;DHT22;4064;48.132;11.366;2023-07-24T05:20:11;17.40;99.90
8043;DHT22;4064;48.132;11.366;2023-07-24T05:22:37;17.40;99.90
8043;DHT22;4064;48.132;11.366;2023-07-24T05:25:03;17.40;99.90
8043;DHT22;4064;48.132;11.366;2023-07-24T05:27:28;17.60;99.90
8043;DHT22;4064;48.132;11.366;2023-07-24T05:29:55;17.70;99.90
8043;DHT22;4064;48.132;11.366;2023-07-24T05:32:20;17.90;99.90
8043;DHT22;4064;48.132;11.366;2023-07-24T05:34:46;18.00;99.90
8043;DHT22;4064;48.132;11.366;2023-07-24T05:37:12;18.30;99.90
8043;DHT22;4064;48.132;11.366;2023-07-24T05:39:37;18.50;99.90
8043;DHT22;4064;48.132;11.366;2023-07-24T05:42:03;18.50;99.90
8043;DHT22;4064;48.132;11.366;2023-07-24T05:44:29;18.50;99.90
8043;DHT22;4064;48.132;11.366;2023-07-24T05:46:54;18.80;99.90
8043;DHT22;4064;48.132;11.366;2023-07-24T05:49:20;19.10;99.90
8043;DHT22;4064;48.132;11.366;2023-07-24T05:51:45;19.30;99.90
8043;DHT22;4064;48.132;11.366;2023-07-24T05:54:11;19.50;99.90
8043;DHT22;4064;48.132;11.366;2023-07-24T05:56:36;19.60;99.90
8043;DHT22;4064;48.132;11.366;2023-07-24T05:59:02;19.70;99.90
8043;DHT22;4064;48.132;11.366;2023-07-24T06:01:28;19.90;99.90
8043;DHT22;4064;48.132;11.366;2023-07-24T06:03:53;19.90;99.90
8043;DHT22;4064;48.132;11.366;2023-07-24T06:06:19;20.00;99.90
8043;DHT22;4064;48.132;11.366;2023-07-24T06:08:44;20.20;99.90
8043;DHT22;4064;48.132;11.366;2023-07-24T06:11:10;20.30;99.90
8043;DHT22;4064;48.132;11.366;2023-07-24T06:13:36;20.40;99.90
8043;DHT22;4064;48.132;11.366;2023-07-24T06:16:01;20.20;99.90
8043;DHT22;4064;48.132;11.366;2023-07-24T06:18:27;20.40;99.90
8043;DHT22;4064;48.132;11.366;2023-07-24T06:20:53;20.50;99.90
8043;DHT22;4064;48.132;11.366;2023-07-24T06:23:19;20.60;99.90
8043;DHT22;4064;48.132;11.366;2023-07-24T06:25:44;20.70;99.90
8043;DHT22;4064;48.132;11.366;2023-07-24T06:28:10;20.80;99.90
8043;DHT22;4064;48.132;11.366;2023-07-24T06:30:36;20.90;99.90
8043;DHT22;4064;48.132;11.366;2023-07-24T06:33:03;21.20;99.90
8043;DHT22;4064;48.132;11.366;2023-07-24T06:35:29;21.50;99.90
8043;DHT22;4064;48.132;11.366;2023-07-24T06:37:54;21.50;99.90
8043;DHT22;4064;48.132;11.366;2023-07-24T06:40:20;21.50;99.90
8043;DHT22;4064;48.132;11.366;2023-07-24T06:42:45;21.50;99.90
8043;DHT22;4064;48.132;11.366;2023-07-24T06:45:11;21.80;99.90
8043;DHT22;4064;48.132;11.366;2023-07-24T06:47:37;22.10;99.90
8043;DHT22;4064;48.132;11.366;2023-07-24T06:50:03;22.50;99.90
8043;DHT22;4064;48.132;11.366;2023-07-24T06:52:30;22.70;99.90
8043;DHT22;4064;48.132;11.366;2023-07-24T06:54:56;22.90;99.90
8043;DHT22;4064;48.132;11.366;2023-07-24T06:57:23;23.10;99.90
8043;DHT22;4064;48.132;11.366;2023-07-24T06:59:49;23.20;99.90
8043;DHT22;4064;48.132;11.366;2023-07-24T07:02:15;23.60;99.90
8043;DHT22;4064;48.132;11.366;2023-07-24T07:04:40;23.60;99.90
8043;DHT22;4064;48.132;11.366;2023-07-24T07:07:06;23.70;99.90
8043;DHT22;4064;48.132;11.366;2023-07-24T07:09:31;23.60;99.90
8043;DHT22;4064;48.132;11.366;2023-07-24T07:11:57;23.40;99.90
8043;DHT22;4064;48.132;11.366;2023-07-24T07:14:23;23.20;99.90
8043;DHT22;4064;48.132;11.366;2023-07-24T07:16:49;23.00;99.90
8043;DHT22;4064;48.132;11.366;2023-07-24T07:24:58;22.20;99.90
8043;DHT22;4064;48.132;11.366;2023-07-24T07:27:23;21.30;99.90
8043;DHT22;4064;48.132;11.366;2023-07-24T07:29:49;20.00;99.90
8043;DHT22;4064;48.132;11.366;2023-07-24T07:32:14;19.50;99.90
8043;DHT22;4064;48.132;11.366;2023-07-24T07:34:40;19.20;99.90
8043;DHT22;4064;48.132;11.366;2023-07-24T07:37:06;18.90;99.90
8043;DHT22;4064;48.132;11.366;2023-07-24T07:39:32;18.90;99.90
8043;DHT22;4064;48.132;11.366;2023-07-24T07:41:58;18.80;99.90
8043;DHT22;4064;48.132;11.366;2023-07-24T07:44:23;18.80;99.90
8043;DHT22;4064;48.132;11.366;2023-07-24T07:46:49;18.80;99.90
8043;DHT22;4064;48.132;11.366;2023-07-24T07:49:15;18.80;99.90
8043;DHT22;4064;48.132;11.366;2023-07-24T07:51:40;18.80;99.90
8043;DHT22;4064;48.132;11.366;2023-07-24T07:54:06;18.80;99.90
8043;DHT22;4064;48.132;11.366;2023-07-24T07:56:32;18.80;99.90
8043;DHT22;4064;48.132;11.366;2023-07-24T07:58:57;18.70;99.90
8043;DHT22;4064;48.132;11.366;2023-07-24T08:01:23;18.70;99.90
8043;DHT22;4064;48.132;11.366;2023-07-24T08:03:48;18.70;99.90
8043;DHT22;4064;48.132;11.366;2023-07-24T08:06:14;18.70;99.90
8043;DHT22;4064;48.132;11.366;2023-07-24T08:08:40;18.70;99.90
8043;DHT22;4064;48.132;11.366;2023-07-24T08:11:06;18.70;99.90
8043;DHT22;4064;48.132;11.366;2023-07-24T08:13:32;18.70;99.90
8043;DHT22;4064;48.132;11.366;2023-07-24T08:15:58;18.70;99.90
8043;DHT22;4064;48.132;11.366;2023-07-24T08:18:25;18.60;99.90
8043;DHT22;4064;48.132;11.366;2023-07-24T08:20:51;18.60;99.90
8043;DHT22;4064;48.132;11.366;2023-07-24T08:23:16;18.40;99.90
8043;DHT22;4064;48.132;11.366;2023-07-24T08:25:55;18.40;99.90
8043;DHT22;4064;48.132;11.366;2023-07-24T08:28:21;18.60;99.90
8043;DHT22;4064;48.132;11.366;2023-07-24T08:30:56;18.60;99.90
8043;DHT22;4064;48.132;11.366;2023-07-24T08:33:22;18.80;99.90
8043;DHT22;4064;48.132;11.366;2023-07-24T08:35:47;19.10;99.90
8043;DHT22;4064;48.132;11.366;2023-07-24T08:38:13;18.90;99.90
8043;DHT22;4064;48.132;11.366;2023-07-24T08:40:38;18.80;99.90
8043;DHT22;4064;48.132;11.366;2023-07-24T08:43:04;18.90;99.90
8043;DHT22;4064;48.132;11.366;2023-07-24T08:45:30;19.00;99.90
8043;DHT22;4064;48.132;11.366;2023-07-24T08:47:56;19.10;99.90
8043;DHT22;4064;48.132;11.366;2023-07-24T08:50:23;19.00;99.90
8043;DHT22;4064;48.132;11.366;2023-07-24T08:52:50;18.90;99.90
8043;DHT22;4064;48.132;11.366;2023-07-24T08:55:16;18.80;99.90
8043;DHT22;4064;48.132;11.366;2023-07-24T08:57:42;18.80;99.90
8043;DHT22;4064;48.132;11.366;2023-07-24T09:00:08;18.80;99.90
8043;DHT22;4064;48.132;11.366;2023-07-24T09:02:35;18.80;99.90
8043;DHT22;4064;48.132;11.366;2023-07-24T09:05:01;18.60;99.90
8043;DHT22;4064;48.132;11.366;2023-07-24T09:07:27;18.70;99.90
8043;DHT22;4064;48.132;11.366;2023-07-24T09:09:52;18.60;99.90
8043;DHT22;4064;48.132;11.366;2023-07-24T09:12:18;18.50;99.90
8043;DHT22;4064;48.132;11.366;2023-07-24T09:14:44;18.50;99.90
8043;DHT22;4064;48.132;11.366;2023-07-24T09:17:11;18.60;99.90
8043;DHT22;4064;48.132;11.366;2023-07-24T09:19:37;18.80;99.90
8043;DHT22;4064;48.132;11.366;2023-07-24T09:22:11;18.90;99.90
8043;DHT22;4064;48.132;11.366;2023-07-24T09:24:37;19.10;99.90
8043;DHT22;4064;48.132;11.366;2023-07-24T09:27:05;19.40;99.90
8043;DHT22;4064;48.132;11.366;2023-07-24T09:29:33;19.50;99.90
8043;DHT22;4064;48.132;11.366;2023-07-24T09:31:59;19.60;99.90
8043;DHT22;4064;48.132;11.366;2023-07-24T09:34:25;19.90;99.90
8043;DHT22;4064;48.132;11.366;2023-07-24T09:36:51;20.20;99.90
8043;DHT22;4064;48.132;11.366;2023-07-24T09:39:27;20.10;99.90
8043;DHT22;4064;48.132;11.366;2023-07-24T09:41:52;20.50;99.90
8043;DHT22;4064;48.132;11.366;2023-07-24T09:44:20;20.90;99.90
8043;DHT22;4064;48.132;11.366;2023-07-24T09:46:46;21.00;99.90
8043;DHT22;4064;48.132;11.366;2023-07-24T09:49:12;21.10;99.90
8043;DHT22;4064;48.132;11.366;2023-07-24T09:51:38;21.10;99.90
8043;DHT22;4064;48.132;11.366;2023-07-24T09:54:26;21.10;99.90
8043;DHT22;4064;48.132;11.366;2023-07-24T09:56:56;21.20;99.90
8043;DHT22;4064;48.132;11.366;2023-07-24T09:59:23;21.20;99.90
8043;DHT22;4064;48.132;11.366;2023-07-24T10:01:50;21.20;99.90
8043;DHT22;4064;48.132;11.366;2023-07-24T10:04:16;21.10;99.90
8043;DHT22;4064;48.132;11.366;2023-07-24T10:06:43;20.90;99.90
8043;DHT22;4064;48.132;11.366;2023-07-24T10:09:10;21.00;99.90
8043;DHT22;4064;48.132;11.366;2023-07-24T10:11:36;21.30;99.90
8043;DHT22;4064;48.132;11.366;2023-07-24T10:14:02;21.60;99.90
8043;DHT22;4064;48.132;11.366;2023-07-24T10:16:28;21.90;99.90
8043;DHT22;4064;48.132;11.366;2023-07-24T10:18:54;21.90;99.90
8043;DHT22;4064;48.132;11.366;2023-07-24T10:21:27;22.10;99.90
8043;DHT22;4064;48.132;11.366;2023-07-24T10:23:52;22.10;99.90
8043;DHT22;4064;48.132;11.366;2023-07-24T10:26:24;22.30;99.90
8043;DHT22;4064;48.132;11.366;2023-07-24T10:28:52;22.50;99.90
8043;DHT22;4064;48.132;11.366;2023-07-24T10:31:25;22.70;99.90
8043;DHT22;4064;48.132;11.366;2023-07-24T10:33:55;22.80;99.90
8043;DHT22;4064;48.132;11.366;2023-07-24T10:36:22;22.80;99.90
8043;DHT22;4064;48.132;11.366;2023-07-24T10:38:54;22.40;99.90
8043;DHT22;4064;48.132;11.366;2023-07-24T10:41:20;22.40;99.90
8043;DHT22;4064;48.132;11.366;2023-07-24T10:43:47;22.30;99.90
8043;DHT22;4064;48.132;11.366;2023-07-24T10:46:15;22.40;99.90
8043;DHT22;4064;48.132;11.366;2023-07-24T10:48:45;22.50;99.90
8043;DHT22;4064;48.132;11.366;2023-07-24T10:51:11;22.70;99.90
8043;DHT22;4064;48.132;11.366;2023-07-24T10:53:44;22.90;99.90
8043;DHT22;4064;48.132;11.366;2023-07-24T10:56:10;23.10;99.90
8043;DHT22;4064;48.132;11.366;2023-07-24T10:58:36;23.50;99.90
8043;DHT22;4064;48.132;11.366;2023-07-24T11:01:04;24.00;99.90
8043;DHT22;4064;48.132;11.366;2023-07-24T11:03:30;24.90;99.90
8043;DHT22;4064;48.132;11.366;2023-07-24T11:05:58;25.50;99.90
8043;DHT22;4064;48.132;11.366;2023-07-24T11:08:24;25.50;99.90
8043;DHT22;4064;48.132;11.366;2023-07-24T11:10:54;25.90;99.90
8043;DHT22;4064;48.132;11.366;2023-07-24T11:13:22;26.20;99.90
8043;DHT22;4064;48.132;11.366;2023-07-24T11:15:49;26.10;99.90
8043;DHT22;4064;48.132;11.366;2023-07-24T11:18:15;26.20;99.90
8043;DHT22;4064;48.132;11.366;2023-07-24T11:20:50;26.00;99.90
8043;DHT22;4064;48.132;11.366;2023-07-24T11:23:16;26.10;99.90
8043;DHT22;4064;48.132;11.366;2023-07-24T11:25:42;26.40;99.90
8043;DHT22;4064;48.132;11.366;2023-07-24T11:28:09;26.60;97.30
8043;DHT22;4064;48.132;11.366;2023-07-24T11:30:35;26.90;97.60
8043;DHT22;4064;48.132;11.366;2023-07-24T11:33:06;26.90;99.00
8043;DHT22;4064;48.132;11.366;2023-07-24T11:35:33;27.00;96.40
8043;DHT22;4064;48.132;11.366;2023-07-24T11:37:59;26.90;96.10
8043;DHT22;4064;48.132;11.366;2023-07-24T11:40:38;26.70;99.90
8043;DHT22;4064;48.132;11.366;2023-07-24T11:43:04;26.60;99.90
8043;DHT22;4064;48.132;11.366;2023-07-24T11:45:31;26.40;99.90
8043;DHT22;4064;48.132;11.366;2023-07-24T11:47:56;25.90;99.90
8043;DHT22;4064;48.132;11.366;2023-07-24T11:50:23;25.50;99.90
8043;DHT22;4064;48.132;11.366;2023-07-24T11:52:52;25.20;99.90
8043;DHT22;4064;48.132;11.366;2023-07-24T11:55:30;25.10;99.90
8043;DHT22;4064;48.132;11.366;2023-07-24T11:58:01;25.10;99.90
8043;DHT22;4064;48.132;11.366;2023-07-24T12:00:27;24.60;99.90
8043;DHT22;4064;48.132;11.366;2023-07-24T12:02:58;24.50;99.90
8043;DHT22;4064;48.132;11.366;2023-07-24T12:05:24;24.40;99.90
8043;DHT22;4064;48.132;11.366;2023-07-24T12:07:50;24.50;99.90
8043;DHT22;4064;48.132;11.366;2023-07-24T12:10:26;24.60;99.90
8043;DHT22;4064;48.132;11.366;2023-07-24T12:12:58;24.40;99.90
8043;DHT22;4064;48.132;11.366;2023-07-24T12:15:24;24.10;99.90
8043;DHT22;4064;48.132;11.366;2023-07-24T12:17:50;23.80;99.90
8043;DHT22;4064;48.132;11.366;2023-07-24T12:20:15;23.50;99.90
8043;DHT22;4064;48.132;11.366;2023-07-24T12:22:41;23.00;99.90
8043;DHT22;4064;48.132;11.366;2023-07-24T12:25:07;22.40;99.90
8043;DHT22;4064;48.132;11.366;2023-07-24T12:27:32;22.30;99.90
8043;DHT22;4064;48.132;11.366;2023-07-24T12:29:59;22.10;99.90
8043;DHT22;4064;48.132;11.366;2023-07-24T12:32:25;22.00;99.90
8043;DHT22;4064;48.132;11.366;2023-07-24T12:34:51;22.00;99.90
8043;DHT22;4064;48.132;11.366;2023-07-24T12:37:17;22.10;99.90
8043;DHT22;4064;48.132;11.366;2023-07-24T12:39:47;22.10;99.90
8043;DHT22;4064;48.132;11.366;2023-07-24T12:42:13;22.10;99.90
8043;DHT22;4064;48.132;11.366;2023-07-24T12:44:39;21.90;99.90
8043;DHT22;4064;48.132;11.366;2023-07-24T12:47:05;21.80;99.90
8043;DHT22;4064;48.132;11.366;2023-07-24T12:49:31;21.80;99.90
8043;DHT22;4064;48.132;11.366;2023-07-24T12:51:56;21.80;99.90
8043;DHT22;4064;48.132;11.366;2023-07-24T12:54:22;22.00;99.90
8043;DHT22;4064;48.132;11.366;2023-07-24T12:56:49;22.20;99.90
8043;DHT22;4064;48.132;11.366;2023-07-24T12:59:15;22.10;99.90
8043;DHT22;4064;48.132;11.366;2023-07-24T13:01:41;21.70;99.90
8043;DHT22;4064;48.132;11.366;2023-07-24T13:04:07;21.50;99.90
8043;DHT22;4064;48.132;11.366;2023-07-24T13:06:33;21.20;99.90
8043;DHT22;4064;48.132;11.366;2023-07-24T13:08:59;21.10;99.90
8043;DHT22;4064;48.132;11.366;2023-07-24T13:11:25;21.00;99.90
8043;DHT22;4064;48.132;11.366;2023-07-24T13:13:51;20.80;99.90
8043;DHT22;4064;48.132;11.366;2023-07-24T13:16:17;20.70;99.90
8043;DHT22;4064;48.132;11.366;2023-07-24T13:18:42;20.70;99.90
8043;DHT22;4064;48.132;11.366;2023-07-24T13:21:08;20.40;99.90
8043;DHT22;4064;48.132;11.366;2023-07-24T13:23:34;20.40;99.90
8043;DHT22;4064;48.132;11.366;2023-07-24T13:26:00;20.30;99.90
8043;DHT22;4064;48.132;11.366;2023-07-24T13:28:25;20.00;99.90
8043;DHT22;4064;48.132;11.366;2023-07-24T13:30:51;19.90;99.90
8043;DHT22;4064;48.132;11.366;2023-07-24T13:33:17;19.80;99.90
8043;DHT22;4064;48.132;11.366;2023-07-24T13:35:42;19.90;99.90
8043;DHT22;4064;48.132;11.366;2023-07-24T13:38:08;20.00;99.90
8043;DHT22;4064;48.132;11.366;2023-07-24T13:40:35;20.20;99.90
8043;DHT22;4064;48.132;11.366;2023-07-24T13:43:00;20.20;99.90
8043;DHT22;4064;48.132;11.366;2023-07-24T13:45:27;20.30;99.90
8043;DHT22;4064;48.132;11.366;2023-07-24T13:47:53;20.30;99.90
8043;DHT22;4064;48.132;11.366;2023-07-24T13:50:19;20.20;99.90
8043;DHT22;4064;48.132;11.366;2023-07-24T13:52:44;20.30;99.90
8043;DHT22;4064;48.132;11.366;2023-07-24T13:55:10;20.60;99.90
8043;DHT22;4064;48.132;11.366;2023-07-24T13:57:36;20.60;99.90
8043;DHT22;4064;48.132;11.366;2023-07-24T14:00:02;20.60;99.90
8043;DHT22;4064;48.132;11.366;2023-07-24T14:02:27;20.80;99.90
8043;DHT22;4064;48.132;11.366;2023-07-24T14:04:53;21.00;99.90
8043;DHT22;4064;48.132;11.366;2023-07-24T14:07:19;21.20;99.90
8043;DHT22;4064;48.132;11.366;2023-07-24T14:09:44;21.30;99.90
8043;DHT22;4064;48.132;11.366;2023-07-24T14:12:11;21.20;99.90
8043;DHT22;4064;48.132;11.366;2023-07-24T14:14:36;21.20;99.90
8043;DHT22;4064;48.132;11.366;2023-07-24T14:17:02;21.40;99.90
8043;DHT22;4064;48.132;11.366;2023-07-24T14:19:28;21.50;99.90
8043;DHT22;4064;48.132;11.366;2023-07-24T14:21:53;22.00;99.90
8043;DHT22;4064;48.132;11.366;2023-07-24T14:24:19;22.20;99.90
8043;DHT22;4064;48.132;11.366;2023-07-24T14:26:45;22.40;99.90
8043;DHT22;4064;48.132;11.366;2023-07-24T14:29:11;22.40;99.90
8043;DHT22;4064;48.132;11.366;2023-07-24T14:31:37;22.30;99.90
8043;DHT22;4064;48.132;11.366;2023-07-24T14:34:03;22.30;99.90
8043;DHT22;4064;48.132;11.366;2023-07-24T14:36:29;21.80;99.90
8043;DHT22;4064;48.132;11.366;2023-07-24T14:39:00;21.90;99.90
8043;DHT22;4064;48.132;11.366;2023-07-24T14:41:26;22.00;99.90
8043;DHT22;4064;48.132;11.366;2023-07-24T14:43:52;22.20;99.90
8043;DHT22;4064;48.132;11.366;2023-07-24T14:46:18;22.30;99.90
8043;DHT22;4064;48.132;11.366;2023-07-24T14:48:44;22.40;99.90
8043;DHT22;4064;48.132;11.366;2023-07-24T14:51:09;22.40;99.90
8043;DHT22;4064;48.132;11.366;2023-07-24T14:53:35;22.40;99.90
8043;DHT22;4064;48.132;11.366;2023-07-24T14:56:02;22.40;99.90
8043;DHT22;4064;48.132;11.366;2023-07-24T14:58:28;22.30;99.90
8043;DHT22;4064;48.132;11.366;2023-07-24T15:00:54;22.20;99.90
8043;DHT22;4064;48.132;11.366;2023-07-24T15:03:19;22.30;99.90
8043;DHT22;4064;48.132;11.366;2023-07-24T15:05:45;22.30;99.90
8043;DHT22;4064;48.132;11.366;2023-07-24T15:08:11;22.30;99.90
8043;DHT22;4064;48.132;11.366;2023-07-24T15:10:36;22.30;99.90
8043;DHT22;4064;48.132;11.366;2023-07-24T15:13:02;22.30;99.90
8043;DHT22;4064;48.132;11.366;2023-07-24T15:15:28;22.70;99.90
8043;DHT22;4064;48.132;11.366;2023-07-24T15:17:55;22.80;99.90
8043;DHT22;4064;48.132;11.366;2023-07-24T15:20:20;22.90;99.90
8043;DHT22;4064;48.132;11.366;2023-07-24T15:22:46;22.80;99.90
8043;DHT22;4064;48.132;11.366;2023-07-24T15:25:11;22.70;99.90
8043;DHT22;4064;48.132;11.366;2023-07-24T15:27:37;22.70;99.90
8043;DHT22;4064;48.132;11.366;2023-07-24T15:30:03;22.50;99.90
8043;DHT22;4064;48.132;11.366;2023-07-24T15:32:28;22.30;99.90
8043;DHT22;4064;48.132;11.366;2023-07-24T15:34:54;22.10;99.90
8043;DHT22;4064;48.132;11.366;2023-07-24T15:37:20;21.90;99.90
8043;DHT22;4064;48.132;11.366;2023-07-24T15:39:45;21.80;99.90
8043;DHT22;4064;48.132;11.366;2023-07-24T15:42:11;21.90;99.90
8043;DHT22;4064;48.132;11.366;2023-07-24T15:44:36;21.90;99.90